Time;durP1;ratioP1;P1;durP2;ratioP2;P2;SDS_P1;SDS_P2;PMS_P1;PMS_P2;Temp;Humidity;BMP_temperature;BMP_pressure;BME280_temperature;BME280_humidity;BME280_pressure;Samples;Min_cycle;Max_cycle;Signal;HPM_P1;HPM_P2
2022/07/18 00:02:04;;;;;;;;;13.75;13.00;;;;;26.49;26.47;101838.38;6276579;22;45134;-87
2022/07/18 00:04:40;;;;;;;;;12.75;10.00;;;;;26.45;26.71;101844.91;6250557;22;45352;-88
2022/07/18 00:07:12;;;;;;;;;12.25;12.00;;;;;26.36;26.31;101827.38;6251882;22;45460;-87
2022/07/18 00:09:40;;;;;;;;;13.50;11.25;;;;;26.34;26.77;101835.56;6275742;22;45861;-87
2022/07/18 00:12:09;;;;;;;;;10.00;9.50;;;;;26.28;26.63;101829.63;6250884;22;45219;-87
2022/07/18 00:14:36;;;;;;;;;7.00;7.00;;;;;26.21;26.93;101829.03;6276694;22;45436;-87
2022/07/18 00:17:02;;;;;;;;;11.25;9.50;;;;;26.19;26.83;101839.03;6252058;22;48322;-88
2022/07/18 00:19:31;;;;;;;;;10.75;9.50;;;;;26.12;26.96;101827.72;6250080;22;45373;-88
2022/07/18 00:21:57;;;;;;;;;10.25;10.00;;;;;26.13;27.11;101831.28;6275649;22;45113;-86
2022/07/18 00:24:22;;;;;;;;;12.00;10.50;;;;;26.08;27.70;101830.63;6248917;22;45331;-88
2022/07/18 00:26:50;;;;;;;;;10.00;9.00;;;;;26.03;27.58;101830.88;6250246;22;46921;-87
2022/07/18 00:29:27;;;;;;;;;10.50;9.75;;;;;25.99;27.80;101823.91;6275928;22;45449;-87
2022/07/18 00:31:57;;;;;;;;;9.25;9.25;;;;;25.96;27.71;101826.75;6275372;22;44704;-87
2022/07/18 00:34:22;;;;;;;;;14.25;13.25;;;;;25.94;28.11;101829.50;6276653;22;45192;-87
2022/07/18 00:36:48;;;;;;;;;14.75;11.50;;;;;25.92;27.65;101825.16;6249155;22;47020;-87
2022/07/18 00:39:16;;;;;;;;;11.25;11.25;;;;;25.92;27.66;101819.75;6250594;22;45170;-87
2022/07/18 00:41:45;;;;;;;;;10.50;10.25;;;;;25.86;27.75;101820.94;6252187;22;45428;-87
2022/07/18 00:44:24;;;;;;;;;13.75;11.25;;;;;25.84;28.05;101819.28;6250047;22;45588;-86
2022/07/18 00:46:54;;;;;;;;;13.00;11.00;;;;;25.81;27.83;101820.25;6274697;22;47293;-87
2022/07/18 00:49:23;;;;;;;;;14.00;11.75;;;;;25.80;27.80;101829.31;6275636;22;45891;-88
2022/07/18 00:51:49;;;;;;;;;11.50;11.50;;;;;25.75;27.94;101828.69;6275731;22;45249;-89
2022/07/18 00:54:17;;;;;;;;;7.75;7.00;;;;;25.73;28.53;101827.88;6249637;22;45354;-89
2022/07/18 00:56:46;;;;;;;;;9.50;9.50;;;;;25.68;28.44;101811.03;6275496;22;47239;-89
2022/07/18 00:59:14;;;;;;;;;9.25;9.25;;;;;25.67;28.26;101815.56;6249054;22;45225;-89
2022/07/18 01:01:46;;;;;;;;;12.50;9.50;;;;;25.67;28.59;101814.69;6276025;22;45310;-88
2022/07/18 01:04:21;;;;;;;;;14.50;11.50;;;;;25.59;28.60;101806.13;6275454;22;45466;-88
2022/07/18 01:06:52;;;;;;;;;9.00;9.00;;;;;25.63;28.62;101823.88;6249379;22;48138;-87
2022/07/18 01:09:22;;;;;;;;;12.75;11.00;;;;;25.61;28.15;101817.69;6273642;22;45348;-87
2022/07/18 01:11:51;;;;;;;;;10.75;10.50;;;;;25.55;28.89;101816.16;6251458;22;45367;-86
2022/07/18 01:14:17;;;;;;;;;10.00;10.00;;;;;25.48;28.29;101806.66;6251602;22;45231;-86
2022/07/18 01:16:42;;;;;;;;;10.50;10.25;;;;;25.48;28.59;101809.34;6251161;22;46091;-86
2022/07/18 01:19:12;;;;;;;;;14.50;10.25;;;;;25.45;28.57;101813.06;6250924;22;45396;-87
2022/07/18 01:21:42;;;;;;;;;12.00;11.25;;;;;25.45;28.92;101814.91;6249203;22;45188;-85
2022/07/18 01:24:10;;;;;;;;;3.00;2.75;;;;;25.38;28.60;101813.44;6251209;22;45294;-86
2022/07/18 01:26:43;;;;;;;;;16.25;13.25;;;;;25.36;28.54;101818.88;6251142;22;45228;-87
2022/07/18 01:29:11;;;;;;;;;15.25;14.00;;;;;25.34;28.66;101822.59;6248373;22;45295;-87
2022/07/18 01:31:36;;;;;;;;;16.25;16.25;;;;;25.31;29.24;101826.31;6249512;22;45182;-86
2022/07/18 01:34:02;;;;;;;;;15.50;15.50;;;;;25.27;29.58;101822.91;6251353;22;45130;-87
2022/07/18 01:36:28;;;;;;;;;15.25;14.25;;;;;25.24;29.30;101822.19;6250908;22;47308;-86
2022/07/18 01:38:58;;;;;;;;;21.75;15.25;;;;;25.27;29.30;101820.22;6249284;22;45172;-87
2022/07/18 01:41:23;;;;;;;;;15.00;13.25;;;;;25.22;29.89;101806.09;6248125;22;45387;-86
2022/07/18 01:43:51;;;;;;;;;16.25;15.75;;;;;25.18;28.91;101801.81;6248883;22;45375;-86
2022/07/18 01:46:16;;;;;;;;;16.50;14.75;;;;;25.20;29.65;101807.09;6274969;22;47220;-87
2022/07/18 01:48:47;;;;;;;;;12.25;12.25;;;;;25.16;29.60;101805.53;6274399;22;45212;-88
2022/07/18 01:51:15;;;;;;;;;17.00;14.00;;;;;25.15;29.42;101812.72;6248688;22;45245;-86
2022/07/18 01:53:53;;;;;;;;;13.25;12.50;;;;;25.14;29.53;101805.53;6274104;22;45458;-87
2022/07/18 01:56:23;;;;;;;;;17.25;17.00;;;;;25.12;29.51;101801.19;6248085;22;46967;-87
2022/07/18 01:58:54;;;;;;;;;15.50;14.75;;;;;25.09;30.05;101794.13;6250117;22;45269;-87
2022/07/18 02:01:19;;;;;;;;;14.00;11.00;;;;;25.08;29.63;101804.03;6247310;22;45267;-86
2022/07/18 02:03:51;;;;;;;;;14.00;12.50;;;;;25.09;29.74;101788.72;6274127;22;46069;-87
2022/07/18 02:06:21;;;;;;;;;13.50;12.25;;;;;25.05;29.57;101776.34;6248596;22;47047;-86
2022/07/18 02:08:49;;;;;;;;;14.00;11.50;;;;;25.09;29.68;101777.94;6248732;22;46165;-86
2022/07/18 02:11:19;;;;;;;;;11.00;11.00;;;;;25.02;30.27;101771.09;6248812;22;45233;-87
2022/07/18 02:13:56;;;;;;;;;11.75;11.25;;;;;24.96;29.78;101772.25;6274827;22;45275;-87
2022/07/18 02:16:28;;;;;;;;;11.50;11.00;;;;;24.95;30.02;101788.50;6273777;22;48151;-86
2022/07/18 02:18:57;;;;;;;;;13.25;11.75;;;;;24.93;30.08;101790.41;6249545;22;45198;-86
2022/07/18 02:21:24;;;;;;;;;14.75;12.75;;;;;24.88;30.10;101793.31;6251169;22;45248;-87
2022/07/18 02:23:54;;;;;;;;;12.75;10.75;;;;;24.87;30.85;101795.13;6249448;22;45686;-87
2022/07/18 02:26:28;;;;;;;;;12.25;11.00;;;;;24.85;30.90;101779.97;6248855;22;47149;-87
2022/07/18 02:28:56;;;;;;;;;13.75;10.25;;;;;24.82;30.50;101794.47;6250810;22;45207;-87
2022/07/18 02:31:26;;;;;;;;;10.50;10.00;;;;;24.76;30.86;101781.28;6248912;22;45299;-87
2022/07/18 02:33:54;;;;;;;;;14.25;12.25;;;;;24.76;30.80;101784.00;6273976;22;45354;-86
2022/07/18 02:36:22;;;;;;;;;11.00;11.00;;;;;24.74;30.74;101785.88;6250026;22;46026;-87
2022/07/18 02:38:58;;;;;;;;;9.75;9.75;;;;;24.72;30.85;101790.44;6249687;22;45361;-86
2022/07/18 02:41:28;;;;;;;;;16.00;14.75;;;;;24.67;30.55;101794.31;6248641;22;45261;-86
2022/07/18 02:43:58;;;;;;;;;13.75;13.75;;;;;24.57;31.38;101788.47;6273706;22;45188;-87
2022/07/18 02:46:24;;;;;;;;;13.25;13.00;;;;;24.57;31.29;101783.97;6248726;22;47145;-87
2022/07/18 02:48:51;;;;;;;;;12.50;12.50;;;;;24.53;31.15;101790.41;6248598;22;45341;-88
2022/07/18 02:51:26;;;;;;;;;12.50;10.50;;;;;24.47;31.37;101781.75;6248968;22;45267;-87
2022/07/18 02:53:56;;;;;;;;;13.00;11.75;;;;;24.47;31.24;101796.09;6274901;22;45224;-87
2022/07/18 02:56:31;;;;;;;;;16.25;14.50;;;;;24.43;31.41;101802.50;6249622;22;46806;-88
2022/07/18 02:58:56;;;;;;;;;14.00;13.50;;;;;24.40;31.28;101803.56;6274634;22;45382;-88
2022/07/18 03:01:24;;;;;;;;;13.50;11.75;;;;;24.30;31.51;101796.81;6248979;22;45369;-88
2022/07/18 03:03:54;;;;;;;;;15.00;14.00;;;;;24.30;31.28;101798.63;6248527;22;45558;-87
2022/07/18 03:06:25;;;;;;;;;14.75;13.25;;;;;24.31;31.32;101809.31;6250516;22;46420;-88
2022/07/18 03:08:55;;;;;;;;;6.50;6.50;;;;;24.25;31.74;101808.75;6273938;22;45202;-87
2022/07/18 03:11:23;;;;;;;;;15.75;13.75;;;;;24.24;31.29;101809.66;6247149;22;45322;-87
2022/07/18 03:13:53;;;;;;;;;16.00;13.75;;;;;24.18;31.77;101795.53;6275209;22;45519;-87
2022/07/18 03:16:19;;;;;;;;;14.25;13.25;;;;;24.21;31.91;101797.22;6251332;22;45325;-88
2022/07/18 03:18:49;;;;;;;;;17.75;16.00;;;;;24.14;31.82;101787.69;6249817;22;45283;-88
2022/07/18 03:21:22;;;;;;;;;21.50;19.25;;;;;24.10;31.92;101784.22;6249632;22;45374;-87
2022/07/18 03:23:53;;;;;;;;;12.00;11.00;;;;;24.10;31.97;101781.53;6249546;22;45367;-88
2022/07/18 03:26:18;;;;;;;;;18.25;16.25;;;;;24.12;32.12;101785.03;6248065;22;47058;-85
2022/07/18 03:28:46;;;;;;;;;18.75;18.00;;;;;24.07;31.93;101779.00;6250460;22;45222;-85
2022/07/18 03:31:14;;;;;;;;;19.00;17.75;;;;;24.11;31.72;101785.09;6248961;22;45349;-84
2022/07/18 03:33:45;;;;;;;;;17.00;14.75;;;;;24.06;32.27;101779.03;6247392;22;45536;-85
2022/07/18 03:36:15;;;;;;;;;18.75;16.25;;;;;24.02;31.75;101775.63;6246954;22;45467;-86
2022/07/18 03:38:43;;;;;;;;;18.75;17.25;;;;;23.91;31.86;101767.16;6222773;22;45540;-85
2022/07/18 03:41:12;;;;;;;;;21.00;17.00;;;;;23.89;32.16;101777.97;6223481;22;45170;-85
2022/07/18 03:43:38;;;;;;;;;22.25;17.75;;;;;23.84;32.32;101774.59;6222857;22;45687;-85
2022/07/18 03:46:04;;;;;;;;;18.75;16.50;;;;;23.81;32.60;101769.34;6250141;22;46137;-84
2022/07/18 03:48:33;;;;;;;;;17.00;16.00;;;;;23.86;32.54;101771.84;6223060;22;45340;-85
2022/07/18 03:51:04;;;;;;;;;18.00;16.50;;;;;23.80;32.42;101761.38;6247287;22;45129;-84
2022/07/18 03:53:31;;;;;;;;;13.75;13.75;;;;;23.75;32.44;101773.19;6249558;22;45263;-85
2022/07/18 03:56:06;;;;;;;;;21.25;17.00;;;;;23.69;32.66;101770.72;6249535;22;45256;-85
2022/07/18 03:58:36;;;;;;;;;15.50;12.75;;;;;23.74;32.67;101786.72;6250210;22;45198;-84
2022/07/18 04:01:06;;;;;;;;;20.50;17.25;;;;;23.75;32.79;101793.81;6248260;22;45403;-85
2022/07/18 04:03:31;;;;;;;;;20.25;14.50;;;;;23.73;32.81;101790.31;6249324;22;45141;-85
2022/07/18 04:05:59;;;;;;;;;18.25;17.75;;;;;23.73;33.37;101788.50;6247372;22;47097;-85
2022/07/18 04:08:33;;;;;;;;;20.00;17.50;;;;;23.75;33.44;101794.69;6247860;22;45289;-85
2022/07/18 04:11:00;;;;;;;;;17.00;16.25;;;;;23.73;33.29;101790.31;6250417;22;45226;-86
2022/07/18 04:13:26;;;;;;;;;18.50;18.25;;;;;23.70;33.09;101779.66;6222603;22;45288;-85
2022/07/18 04:15:54;;;;;;;;;17.75;15.75;;;;;23.76;33.60;101791.09;6250362;22;46106;-85
2022/07/18 04:18:22;;;;;;;;;19.50;18.75;;;;;23.76;33.09;101792.88;6248937;22;45363;-86
2022/07/18 04:21:26;;;;;;;;;19.50;13.50;;;;;23.72;32.89;101793.97;6222159;22;45341;-85
2022/07/18 04:24:11;;;;;;;;;;;;;;;;;;;;;
2022/07/18 04:27:03;;;;;;;;;15.25;14.00;;;;;23.61;32.80;101775.56;6247214;22;75117;-86
2022/07/18 04:29:38;;;;;;;;;;;;;;;;;;;;;
2022/07/18 04:32:19;;;;;;;;;;;;;;;;;;;;;
2022/07/18 04:34:57;;;;;;;;;;;;;;;;;;;;;
2022/07/18 04:37:39;;;;;;;;;15.00;12.50;;;;;23.54;32.94;101758.78;6248581;22;75216;-84
2022/07/18 04:40:19;;;;;;;;;;;;;;;;;;;;;
2022/07/18 04:43:00;;;;;;;;;;;;;;;;;;;;;
2022/07/18 04:45:32;;;;;;;;;15.25;11.75;;;;;23.58;32.95;101739.88;6248532;22;72832;-85
2022/07/18 04:48:01;;;;;;;;;16.25;13.00;;;;;23.68;33.17;101755.53;6223032;22;48040;-85
2022/07/18 04:50:34;;;;;;;;;11.75;11.00;;;;;23.65;33.26;101734.13;6225369;22;45350;-84
2022/07/18 04:53:10;;;;;;;;;14.25;13.50;;;;;23.65;33.56;101723.38;6250254;22;45190;-85
2022/07/18 04:55:46;;;;;;;;;14.50;12.50;;;;;23.75;33.13;101740.91;6226341;22;45427;-85
2022/07/18 04:58:16;;;;;;;;;14.00;12.25;;;;;23.77;33.37;101732.78;6226628;22;46739;-86
2022/07/18 05:00:42;;;;;;;;;13.50;13.50;;;;;23.78;33.73;101731.84;6226164;22;45205;-85
2022/07/18 05:03:12;;;;;;;;;11.50;11.50;;;;;23.68;33.41;101717.00;6224202;22;45320;-86
2022/07/18 05:05:40;;;;;;;;;14.75;13.75;;;;;23.73;33.29;101723.09;6220820;22;45389;-86
2022/07/18 05:08:18;;;;;;;;;;;;;;;;;;;;;
2022/07/18 05:10:52;;;;;;;;;15.75;14.50;;;;;23.85;33.45;101711.81;6246867;22;72824;-85
2022/07/18 05:13:17;;;;;;;;;14.00;14.00;;;;;23.87;33.31;101704.56;6245860;22;45305;-85
2022/07/18 05:15:57;;;;;;;;;18.50;14.50;;;;;23.88;33.49;101690.16;6247779;22;45174;-85
2022/07/18 05:18:24;;;;;;;;;12.00;11.00;;;;;24.00;33.23;101696.78;6248274;22;45469;-89
2022/07/18 05:20:50;;;;;;;;;12.25;12.25;;;;;23.97;33.70;101680.78;6221495;22;45362;-85
2022/07/18 05:23:17;;;;;;;;;16.25;14.00;;;;;24.05;33.67;101689.38;6221327;22;45833;-87
2022/07/18 05:25:53;;;;;;;;;16.50;14.00;;;;;24.08;33.94;101699.13;6246470;22;45523;-86
2022/07/18 05:28:24;;;;;;;;;14.00;12.50;;;;;24.08;33.81;101705.38;6220190;22;46816;-87
2022/07/18 05:30:54;;;;;;;;;16.25;13.25;;;;;24.12;33.57;101736.59;6219814;22;45324;-86
2022/07/18 05:33:22;;;;;;;;;11.50;11.50;;;;;24.09;33.94;101749.34;6246138;22;45131;-87
2022/07/18 05:38:36;;;;;;;;;15.00;13.75;;;;;24.06;33.85;101757.53;6247600;22;46496;-86
2022/07/18 05:41:02;;;;;;;;;17.25;15.00;;;;;24.06;34.39;101753.03;6246274;22;45249;-87
2022/07/18 05:43:30;;;;;;;;;16.75;14.50;;;;;24.07;34.09;101746.69;6247722;22;45176;-86
2022/07/18 05:45:58;;;;;;;;;18.25;15.50;;;;;24.11;34.22;101742.94;6251354;22;45227;-83
2022/07/18 05:48:33;;;;;;;;;18.50;15.00;;;;;24.21;33.73;101762.22;6249138;22;47468;-86
2022/07/18 05:51:07;;;;;;;;;16.25;14.25;;;;;24.27;33.67;101759.28;6247197;22;45782;-85
2022/07/18 05:53:32;;;;;;;;;18.25;13.75;;;;;24.33;33.88;101764.38;6272487;22;45199;-85
2022/07/18 05:55:58;;;;;;;;;18.25;15.50;;;;;24.36;33.27;101764.25;6245304;22;45554;-85
2022/07/18 06:01:30;;;;;;;;;11.75;11.75;;;;;24.46;33.56;101748.59;6247092;22;45128;-84
2022/07/18 06:04:00;;;;;;;;;18.75;13.25;;;;;24.53;33.05;101744.66;6245172;22;45342;-84
2022/07/18 06:06:51;;;;;;;;;;;;;;;;;;;;;
2022/07/18 06:09:44;;;;;;;;;;;;;;;;;;;;;
2022/07/18 06:12:12;;;;;;;;;14.50;11.50;;;;;24.62;33.16;101740.69;6246853;22;72909;-89
2022/07/18 06:14:38;;;;;;;;;12.25;9.00;;;;;24.70;32.69;101745.69;6273119;22;45228;-89
2022/07/18 06:17:03;;;;;;;;;10.75;10.75;;;;;24.71;32.73;101742.94;6246628;22;45354;-87
2022/07/18 06:19:31;;;;;;;;;11.00;10.00;;;;;24.81;32.89;101746.06;6272635;22;47265;-89
2022/07/18 06:21:59;;;;;;;;;11.00;10.25;;;;;24.86;32.69;101747.59;6247268;22;45391;-89
2022/07/18 06:24:30;;;;;;;;;11.00;9.75;;;;;24.91;32.61;101741.09;6248104;22;45287;-87
2022/07/18 06:27:01;;;;;;;;;13.25;11.50;;;;;24.94;32.48;101744.53;6246010;22;45419;-87
2022/07/18 06:29:29;;;;;;;;;11.75;11.75;;;;;24.96;32.31;101741.75;6272584;22;48505;-86
2022/07/18 06:32:02;;;;;;;;;12.75;10.50;;;;;24.98;32.53;101740.72;6272182;22;45986;-85
2022/07/18 06:34:29;;;;;;;;;10.25;9.75;;;;;25.06;32.38;101745.75;6245840;22;45240;-89
2022/07/18 06:36:58;;;;;;;;;10.25;9.75;;;;;25.12;32.51;101749.97;6247292;22;45118;-87
2022/07/18 06:39:26;;;;;;;;;10.50;9.75;;;;;25.20;31.86;101764.84;6273877;22;47128;-85
2022/07/18 06:41:51;;;;;;;;;10.00;9.25;;;;;25.21;32.17;101744.19;6247621;22;45205;-87
2022/07/18 06:44:17;;;;;;;;;13.25;12.25;;;;;25.28;32.19;101749.16;6257204;22;45124;-89
2022/07/18 06:46:48;;;;;;;;;13.00;12.00;;;;;25.36;31.87;101756.00;6259017;22;45173;-87
2022/07/18 06:49:15;;;;;;;;;13.00;10.00;;;;;25.39;31.76;101747.75;6282535;22;47403;-85
2022/07/18 06:51:44;;;;;;;;;10.75;10.25;;;;;25.45;31.79;101750.19;6251007;22;45191;-83
2022/07/18 06:54:27;;;;;;;;;;;;;;;;;;;;;
2022/07/18 06:56:56;;;;;;;;;12.50;10.00;;;;;25.59;31.91;101761.13;6248046;22;72796;-82
2022/07/18 06:59:36;;;;;;;;;10.00;10.00;;;;;25.67;31.94;101768.84;6248381;22;45468;-86
2022/07/18 07:02:04;;;;;;;;;9.00;9.00;;;;;25.71;31.63;101767.72;6271915;22;45129;-83
2022/07/18 07:04:32;;;;;;;;;10.50;10.25;;;;;25.76;31.63;101765.66;6248559;22;45236;-84
2022/07/18 07:07:01;;;;;;;;;12.25;10.25;;;;;25.83;31.77;101768.94;6247863;22;45424;-82
2022/07/18 07:09:26;;;;;;;;;11.00;10.25;;;;;25.91;31.44;101762.22;6247746;22;45302;-83
2022/07/18 07:11:54;;;;;;;;;10.50;10.25;;;;;25.99;31.23;101759.13;6271499;22;45292;-85
2022/07/18 07:14:25;;;;;;;;;9.50;9.00;;;;;26.04;31.78;101756.19;6248389;22;45293;-82
2022/07/18 07:16:53;;;;;;;;;11.50;11.25;;;;;26.15;31.09;101764.59;6271883;22;45464;-84
2022/07/18 07:19:29;;;;;;;;;11.75;11.25;;;;;26.18;31.12;101751.78;6244121;22;47283;-85
2022/07/18 07:21:58;;;;;;;;;10.50;10.25;;;;;26.28;31.13;101751.31;6271733;22;45150;-85
2022/07/18 07:24:23;;;;;;;;;11.25;8.75;;;;;26.32;30.93;101748.34;6272205;22;45319;-87
2022/07/18 07:27:01;;;;;;;;;;;;;;;;;;;;;
2022/07/18 07:29:29;;;;;;;;;10.50;9.25;;;;;26.52;30.66;101760.81;6247859;22;74085;-89
2022/07/18 07:32:04;;;;;;;;;11.50;10.25;;;;;26.60;30.85;101752.31;6248259;22;45475;-85
2022/07/18 07:34:37;;;;;;;;;11.50;10.00;;;;;26.72;31.08;101757.00;6221969;22;45243;-87
2022/07/18 07:37:05;;;;;;;;;11.25;8.00;;;;;26.81;30.77;101744.81;6246540;22;45224;-87
2022/07/18 07:39:30;;;;;;;;;10.25;8.75;;;;;26.93;30.50;101748.66;6220319;22;47823;-88
2022/07/18 07:42:03;;;;;;;;;8.50;8.50;;;;;27.01;30.45;101735.59;6248083;22;45415;-88
2022/07/18 07:44:33;;;;;;;;;9.50;9.50;;;;;27.08;30.03;101737.00;6246174;22;45201;-87
2022/07/18 07:47:01;;;;;;;;;10.00;9.25;;;;;27.15;30.11;101732.09;6245880;22;45413;-85
2022/07/18 07:49:33;;;;;;;;;10.25;9.75;;;;;27.21;29.95;101718.22;6246125;22;46961;-85
2022/07/18 07:52:13;;;;;;;;;9.00;7.75;;;;;27.33;30.04;101725.66;6248257;22;45425;-83
2022/07/18 07:54:39;;;;;;;;;10.75;8.25;;;;;27.42;29.39;101718.81;6220382;22;45202;-81
2022/07/18 07:57:04;;;;;;;;;9.25;8.00;;;;;27.47;29.42;101723.00;6219916;22;45557;-84
2022/07/18 07:59:39;;;;;;;;;10.25;9.75;;;;;27.58;29.38;101716.94;6245289;22;47803;-82
2022/07/18 08:02:08;;;;;;;;;10.25;10.25;;;;;27.75;29.12;101731.28;6220451;22;45178;-84
2022/07/18 08:04:35;;;;;;;;;9.75;8.50;;;;;27.84;29.35;101723.53;6247929;22;45394;-84
2022/07/18 08:07:01;;;;;;;;;10.50;8.50;;;;;27.94;28.54;101726.56;6248014;22;45479;-78
2022/07/18 08:09:26;;;;;;;;;11.25;8.50;;;;;28.07;28.77;101729.38;6247883;22;46125;-80
2022/07/18 08:11:52;;;;;;;;;9.00;9.00;;;;;28.16;28.23;101723.38;6247493;22;45144;-77
2022/07/18 08:14:17;;;;;;;;;9.00;6.00;;;;;28.30;28.11;101722.50;6247751;22;45672;-78
2022/07/18 08:16:42;;;;;;;;;6.50;4.00;;;;;28.36;27.13;101719.41;6247584;22;45217;-78
2022/07/18 08:19:08;;;;;;;;;9.00;8.00;;;;;28.47;27.03;101716.06;6247502;22;45206;-79
2022/07/18 08:21:33;;;;;;;;;7.75;6.75;;;;;28.55;27.01;101711.03;6247793;22;45142;-78
2022/07/18 08:23:58;;;;;;;;;6.75;5.50;;;;;28.66;26.75;101708.50;6220083;22;45344;-77
2022/07/18 08:26:25;;;;;;;;;7.50;6.50;;;;;28.76;26.72;101706.94;6247690;22;45110;-78
2022/07/18 08:28:51;;;;;;;;;5.75;5.75;;;;;28.86;26.58;101704.47;6247956;22;46052;-78
2022/07/18 08:31:19;;;;;;;;;4.75;4.75;;;;;28.94;26.22;101703.97;6225224;22;45350;-79
2022/07/18 08:33:45;;;;;;;;;6.25;5.00;;;;;29.04;25.93;101716.00;6247833;22;45303;-78
2022/07/18 08:36:10;;;;;;;;;6.00;4.00;;;;;29.12;25.57;101723.63;6245573;22;45456;-77
2022/07/18 08:38:36;;;;;;;;;6.00;5.00;;;;;29.16;25.41;101717.00;6246346;22;45476;-80
2022/07/18 08:41:03;;;;;;;;;7.25;6.00;;;;;29.24;25.41;101715.56;6245031;22;45222;-78
2022/07/18 08:43:28;;;;;;;;;6.50;6.50;;;;;29.34;25.34;101729.34;6271689;22;45291;-79
2022/07/18 08:46:14;;;;;;;;;8.00;7.00;;;;;29.42;25.30;101718.84;6249214;22;45191;-90
2022/07/18 09:02:58;;;;;;;;;6.75;6.75;;;;;30.02;24.41;101716.59;6182462;23;46427;-83
2022/07/18 09:05:27;;;;;;;;;7.25;7.25;;;;;30.08;24.23;101708.88;6151642;23;45368;-81
2022/07/18 09:08:19;;;;;;;;;7.25;5.50;;;;;30.22;24.61;101712.47;6231857;22;45716;-79
2022/07/18 09:11:04;;;;;;;;;5.75;5.75;;;;;30.34;24.62;101708.94;6242684;22;45209;-81
2022/07/18 09:13:48;;;;;;;;;7.00;7.00;;;;;30.50;24.22;101717.69;6270779;22;47433;-82
2022/07/18 09:19:59;;;;;;;;;5.75;5.75;;;;;30.73;23.61;101712.41;6183984;23;45487;-86
2022/07/18 09:38:21;;;;;;;;;5.75;5.75;;;;;31.47;22.75;101724.16;6242981;22;45713;-82
2022/07/18 10:00:06;;;;;;;;;6.00;5.00;;;;;32.25;21.30;101707.16;6241291;22;45972;-82
2022/07/18 10:37:42;;;;;;;;;6.50;6.50;;;;;33.86;20.00;101678.34;6215466;22;45817;-74
2022/07/18 10:40:22;;;;;;;;;7.75;7.75;;;;;33.94;20.11;101678.53;6238673;22;45493;-73
2022/07/18 10:43:29;;;;;;;;;7.75;6.75;;;;;34.07;19.49;101675.59;6215226;22;45417;-74
2022/07/18 10:45:54;;;;;;;;;6.75;5.75;;;;;34.15;19.22;101675.78;6214454;22;45181;-74
2022/07/18 10:48:42;;;;;;;;;6.00;6.00;;;;;34.33;19.39;101670.56;6215087;22;45188;-74
2022/07/18 10:51:16;;;;;;;;;8.00;5.75;;;;;34.52;19.57;101677.94;6202230;22;45434;-75
2022/07/18 10:53:57;;;;;;;;;6.50;6.50;;;;;34.67;19.68;101680.19;6214096;22;45261;-74
2022/07/18 10:56:51;;;;;;;;;6.50;5.50;;;;;34.84;19.29;101677.78;6214107;22;45144;-76
2022/07/18 10:59:25;;;;;;;;;7.00;7.00;;;;;34.96;19.03;101681.22;6212889;22;47166;-76
2022/07/18 11:01:53;;;;;;;;;8.50;6.50;;;;;35.05;19.13;101680.41;6215409;22;45326;-76
2022/07/18 11:04:32;;;;;;;;;9.75;7.50;;;;;35.16;18.63;101680.28;6213808;22;45236;-76
2022/07/18 11:07:13;;;;;;;;;9.50;6.75;;;;;35.29;18.84;101677.28;6213497;22;45642;-76
2022/07/18 11:09:47;;;;;;;;;9.25;8.00;;;;;35.43;19.18;101668.59;6215677;22;45445;-76
2022/07/18 11:12:31;;;;;;;;;7.50;6.25;;;;;35.61;18.45;101667.88;6215002;22;45271;-75
2022/07/18 11:15:07;;;;;;;;;9.00;9.00;;;;;35.76;18.59;101669.16;6213553;22;45333;-76
2022/07/18 11:17:51;;;;;;;;;3.75;3.75;;;;;35.88;18.63;101670.72;6213617;22;45769;-76
2022/07/18 11:20:23;;;;;;;;;7.75;7.75;;;;;35.95;18.35;101662.75;6213460;22;48007;-76
2022/07/18 11:22:49;;;;;;;;;6.00;6.00;;;;;36.06;17.89;101664.44;6215765;22;45412;-76
2022/07/18 11:25:17;;;;;;;;;6.00;6.00;;;;;36.14;17.76;101668.22;6213027;22;45221;-76
2022/07/18 11:27:43;;;;;;;;;6.25;6.25;;;;;36.19;17.63;101663.13;6215442;22;45221;-76
2022/07/18 11:30:15;;;;;;;;;5.75;5.25;;;;;36.24;17.20;101664.53;6215298;22;46692;-77
2022/07/18 11:32:41;;;;;;;;;6.25;5.00;;;;;36.29;17.60;101660.34;6213649;22;45276;-76
2022/07/18 11:35:09;;;;;;;;;5.75;5.75;;;;;36.32;17.29;101651.78;6214725;22;45392;-76
2022/07/18 11:37:36;;;;;;;;;5.50;5.50;;;;;36.42;16.85;101659.97;6216832;22;45181;-77
2022/07/18 11:40:06;;;;;;;;;5.75;5.75;;;;;36.50;16.98;101661.97;6214390;22;47091;-76
2022/07/18 11:42:39;;;;;;;;;6.50;6.50;;;;;36.59;17.45;101652.84;6214941;22;45289;-77
2022/07/18 11:45:12;;;;;;;;;7.25;7.25;;;;;36.69;17.24;101647.28;6217300;22;45212;-77
2022/07/18 11:47:46;;;;;;;;;5.50;5.00;;;;;36.82;16.75;101647.78;6217667;22;45236;-77
2022/07/18 11:50:11;;;;;;;;;7.50;7.00;;;;;36.90;16.88;101641.50;6215038;22;47146;-76
2022/07/18 11:52:39;;;;;;;;;4.00;4.00;;;;;37.08;16.34;101640.53;6217744;22;45158;-76
2022/07/18 11:55:04;;;;;;;;;7.00;6.50;;;;;37.24;16.70;101642.56;6215849;22;45222;-76
2022/07/18 11:57:32;;;;;;;;;6.00;6.00;;;;;37.34;16.21;101636.94;6215034;22;45806;-76
2022/07/18 11:59:59;;;;;;;;;5.75;5.75;;;;;37.41;16.27;101637.19;6240495;22;46724;-76
2022/07/18 12:03:02;;;;;;;;;6.25;6.25;;;;;37.51;16.31;101632.50;6217098;22;45186;-77
2022/07/18 12:05:43;;;;;;;;;4.50;4.00;;;;;37.63;16.33;101625.69;6215607;22;45331;-76
2022/07/18 12:08:31;;;;;;;;;5.75;5.00;;;;;37.80;15.90;101632.19;6215140;22;45482;-76
2022/07/18 12:11:17;;;;;;;;;6.00;6.00;;;;;37.89;15.09;101622.06;6216989;22;45933;-76
2022/07/18 12:13:42;;;;;;;;;6.00;6.00;;;;;37.98;15.58;101617.50;6215137;22;45350;-76
2022/07/18 12:16:40;;;;;;;;;6.25;6.25;;;;;38.05;15.36;101619.44;6217450;22;45393;-76
2022/07/18 12:19:24;;;;;;;;;8.00;6.00;;;;;38.09;14.94;101623.59;6216431;22;45106;-76
2022/07/18 12:21:57;;;;;;;;;3.00;3.00;;;;;38.12;15.07;101622.38;6214929;22;47860;-76
2022/07/18 12:24:28;;;;;;;;;5.50;4.50;;;;;38.22;14.77;101614.00;6217034;22;45263;-76
2022/07/18 12:27:19;;;;;;;;;4.25;4.25;;;;;38.32;14.75;101614.72;6216799;22;45398;-77
2022/07/18 12:30:04;;;;;;;;;5.25;5.00;;;;;38.40;14.87;101609.25;6216825;22;45322;-76
2022/07/18 12:32:50;;;;;;;;;2.25;2.25;;;;;38.49;14.65;101613.78;6241342;22;45332;-76
2022/07/18 12:35:22;;;;;;;;;6.50;6.50;;;;;38.54;14.20;101603.13;6250247;22;46098;-76
2022/07/18 12:37:57;;;;;;;;;4.50;4.50;;;;;38.49;14.21;101607.41;6278602;22;45275;-77
2022/07/18 12:40:51;;;;;;;;;4.25;4.25;;;;;38.56;14.16;101600.22;6250516;22;45218;-77
2022/07/18 12:43:43;;;;;;;;;6.00;6.00;;;;;38.63;14.23;101601.28;6264528;22;45408;-76
2022/07/18 12:46:10;;;;;;;;;4.50;4.00;;;;;38.68;14.27;101595.22;6272037;22;45481;-77
2022/07/18 12:48:36;;;;;;;;;2.25;2.25;;;;;38.79;13.78;101594.94;6250804;22;45413;-76
2022/07/18 12:51:07;;;;;;;;;3.25;3.25;;;;;38.89;14.19;101592.03;6278281;22;45297;-76
2022/07/18 12:53:38;;;;;;;;;5.25;4.25;;;;;38.96;14.19;101580.16;6277933;22;45247;-76
2022/07/18 12:56:04;;;;;;;;;3.25;2.25;;;;;39.07;14.01;101581.69;6278027;22;45189;-76
2022/07/18 12:58:29;;;;;;;;;5.75;5.75;;;;;39.06;14.09;101577.25;6278783;22;45208;-76
2022/07/18 13:00:56;;;;;;;;;4.00;4.00;;;;;39.08;14.81;101583.41;6250694;22;45099;-76
2022/07/18 13:03:21;;;;;;;;;5.50;5.25;;;;;39.07;14.20;101573.44;6250781;22;47029;-76
2022/07/18 13:05:47;;;;;;;;;5.00;5.00;;;;;39.14;14.11;101571.72;6250855;22;45117;-76
2022/07/18 13:08:14;;;;;;;;;6.25;6.00;;;;;39.31;14.14;101571.69;6278898;22;45145;-76
2022/07/18 13:10:40;;;;;;;;;5.75;5.75;;;;;39.44;13.89;101572.91;6278138;22;45264;-76
2022/07/18 13:13:07;;;;;;;;;6.00;5.00;;;;;39.54;14.04;101582.88;6276290;22;47805;-76
2022/07/18 13:15:34;;;;;;;;;7.50;6.25;;;;;39.51;13.64;101577.72;6276459;22;45362;-76
2022/07/18 13:17:59;;;;;;;;;4.00;4.00;;;;;39.55;13.37;101570.81;6278407;22;45250;-76
2022/07/18 13:20:25;;;;;;;;;5.00;5.00;;;;;39.56;14.05;101558.75;6250107;22;45253;-76
2022/07/18 13:22:51;;;;;;;;;4.50;4.50;;;;;39.61;13.56;101559.94;6250350;22;45985;-77